首页
METAR-TAF:

METAR-TAF

机场 :

海伦娜区域机场

赫勒拿, 蒙大拿州, 美国

纬度: 46-36-20N, 经度: 111-57-49W, 海拔: 1180米

当前天气观测

该预报发布于1小时和2分钟前的00:53 UTC
风速15节,风向西转西北,有时为22节阵风
温度 25°C
湿度 26%
气压 1009 hPa
能見度: 16.1公里
天空无云

METAR: KHLN 010053Z AUTO 30015G22KT 10SM CLR 25/04 A2981 RMK AO2 PK WND 29027/0016 SLP074 T02500039

时间: 19:55 (01:55 UTC)

预报

该预报发布于2小时和19分钟前的23:36 UTC
预报有效从01日的 00点(UTC)到 01日的 24点(UTC)
风速15节,风向西转西北,有时为26节阵风
能見度: 10公里
散云层高于9000英尺
从 01日的 0300点(UTC)
风速15节,风向西
能見度: 10公里
少量云层高于9000英尺
散云层高于20000英尺
从 01日的 0600点(UTC)
风速6节,风向多变
能見度: 10公里
少量云层高于10000英尺
多云层高于20000英尺
从 01日的 1800点(UTC)
风速7节,风向西转西北
能見度: 10公里
散云层高于6000英尺
多云层高于9000英尺

TAF: KHLN 312336Z 0100/0124 29015G26KT P6SM SCT090 FM010300 28015KT P6SM FEW090 SCT200 FM010600 VRB06KT P6SM FEW100 BKN200 FM011800 30007KT P6SM SCT060 BKN090

超过4000个机场的气象观测和天气预报(METAR&TAF报告)。

可查询的气象台以黄色和红色小点在地图上表示。

将鼠标移到小点上方,可查看气象台名称。

然后点击查看天气观测和预报。

如需切换地图:点击带黑十字的绿色按钮放大地图;点击带横线的绿色按钮缩小地图;或者点击绿色箭头查看邻近地区的地图。


METAR-TAF: